sensor_id;sensor_type;location;lat;lon;timestamp;pressure;altitude;pressure_sealevel;temperature;humidity
26192;BME280;13935;55.672;37.764;2023-04-06T00:01:08;100753.69;;;6.35;100.00
26192;BME280;13935;55.672;37.764;2023-04-06T00:04:07;100746.81;;;6.29;100.00
26192;BME280;13935;55.672;37.764;2023-04-06T00:05:19;100752.94;;;6.26;100.00
26192;BME280;13935;55.672;37.764;2023-04-06T00:06:30;100751.00;;;6.27;100.00
26192;BME280;13935;55.672;37.764;2023-04-06T00:11:26;100743.66;;;6.19;100.00
26192;BME280;13935;55.672;37.764;2023-04-06T00:15:26;100750.91;;;6.23;100.00
26192;BME280;13935;55.672;37.764;2023-04-06T00:20:49;100750.41;;;6.21;100.00
26192;BME280;13935;55.672;37.764;2023-04-06T00:25:41;100755.50;;;6.11;100.00
26192;BME280;13935;55.672;37.764;2023-04-06T00:28:38;100757.25;;;6.15;100.00
26192;BME280;13935;55.672;37.764;2023-04-06T00:30:08;100758.72;;;6.13;100.00
26192;BME280;13935;55.672;37.764;2023-04-06T00:31:26;100756.56;;;6.18;100.00
26192;BME280;13935;55.672;37.764;2023-04-06T00:33:21;100757.69;;;6.17;100.00
26192;BME280;13935;55.672;37.764;2023-04-06T00:34:46;100759.31;;;6.18;100.00
26192;BME280;13935;55.672;37.764;2023-04-06T00:35:59;100751.91;;;6.19;100.00
26192;BME280;13935;55.672;37.764;2023-04-06T00:38:49;100754.84;;;6.14;100.00
26192;BME280;13935;55.672;37.764;2023-04-06T00:40:03;100754.25;;;6.08;100.00
26192;BME280;13935;55.672;37.764;2023-04-06T00:41:20;100754.38;;;6.12;100.00
26192;BME280;13935;55.672;37.764;2023-04-06T00:43:08;100746.28;;;6.15;100.00
26192;BME280;13935;55.672;37.764;2023-04-06T00:45:01;100750.94;;;6.15;100.00
26192;BME280;13935;55.672;37.764;2023-04-06T00:46:24;100748.28;;;6.06;100.00
26192;BME280;13935;55.672;37.764;2023-04-06T00:56:07;100744.94;;;6.01;100.00
26192;BME280;13935;55.672;37.764;2023-04-06T01:08:45;100745.94;;;5.96;100.00
26192;BME280;13935;55.672;37.764;2023-04-06T01:09:56;100745.06;;;6.04;100.00
26192;BME280;13935;55.672;37.764;2023-04-06T01:11:12;100751.22;;;6.01;100.00
26192;BME280;13935;55.672;37.764;2023-04-06T01:12:31;100744.81;;;5.97;100.00
26192;BME280;13935;55.672;37.764;2023-04-06T01:13:40;100737.69;;;5.96;100.00
26192;BME280;13935;55.672;37.764;2023-04-06T01:15:50;100743.19;;;5.96;100.00
26192;BME280;13935;55.672;37.764;2023-04-06T01:21:50;100746.94;;;5.92;100.00
26192;BME280;13935;55.672;37.764;2023-04-06T01:31:07;100734.19;;;5.87;100.00
26192;BME280;13935;55.672;37.764;2023-04-06T01:32:36;100743.44;;;5.83;100.00
26192;BME280;13935;55.672;37.764;2023-04-06T01:33:51;100742.66;;;5.82;100.00
26192;BME280;13935;55.672;37.764;2023-04-06T01:35:37;100743.63;;;5.78;100.00
26192;BME280;13935;55.672;37.764;2023-04-06T01:41:32;100740.72;;;5.74;100.00
26192;BME280;13935;55.672;37.764;2023-04-06T01:46:58;100739.78;;;5.70;100.00
26192;BME280;13935;55.672;37.764;2023-04-06T01:53:14;100734.03;;;5.63;100.00
26192;BME280;13935;55.672;37.764;2023-04-06T01:54:50;100741.78;;;5.62;100.00
26192;BME280;13935;55.672;37.764;2023-04-06T01:56:34;100736.97;;;5.59;100.00
26192;BME280;13935;55.672;37.764;2023-04-06T01:58:25;100740.63;;;5.63;100.00
26192;BME280;13935;55.672;37.764;2023-04-06T01:59:59;100748.88;;;5.63;100.00
26192;BME280;13935;55.672;37.764;2023-04-06T02:01:23;100751.63;;;5.63;100.00
26192;BME280;13935;55.672;37.764;2023-04-06T02:05:29;100746.19;;;5.54;100.00
26192;BME280;13935;55.672;37.764;2023-04-06T02:06:37;100745.69;;;5.61;100.00
26192;BME280;13935;55.672;37.764;2023-04-06T02:07:46;100751.34;;;5.56;100.00
26192;BME280;13935;55.672;37.764;2023-04-06T02:08:56;100751.81;;;5.58;100.00
26192;BME280;13935;55.672;37.764;2023-04-06T02:10:13;100744.72;;;5.57;100.00
26192;BME280;13935;55.672;37.764;2023-04-06T02:11:18;100747.47;;;5.57;100.00
26192;BME280;13935;55.672;37.764;2023-04-06T02:12:35;100758.63;;;5.52;100.00
26192;BME280;13935;55.672;37.764;2023-04-06T02:13:43;100750.41;;;5.52;100.00
26192;BME280;13935;55.672;37.764;2023-04-06T02:15:12;100751.97;;;5.61;100.00
26192;BME280;13935;55.672;37.764;2023-04-06T02:16:27;100752.59;;;5.58;100.00
26192;BME280;13935;55.672;37.764;2023-04-06T02:19:11;100753.00;;;5.48;100.00
26192;BME280;13935;55.672;37.764;2023-04-06T02:21:12;100755.88;;;5.52;100.00
26192;BME280;13935;55.672;37.764;2023-04-06T02:22:53;100754.75;;;5.53;100.00
26192;BME280;13935;55.672;37.764;2023-04-06T02:24:12;100753.16;;;5.52;100.00
26192;BME280;13935;55.672;37.764;2023-04-06T02:25:19;100758.28;;;5.53;100.00
26192;BME280;13935;55.672;37.764;2023-04-06T02:26:29;100758.09;;;5.58;100.00
26192;BME280;13935;55.672;37.764;2023-04-06T02:31:21;100759.31;;;5.49;100.00
26192;BME280;13935;55.672;37.764;2023-04-06T02:32:56;100764.81;;;5.49;100.00
26192;BME280;13935;55.672;37.764;2023-04-06T02:34:24;100755.41;;;5.50;100.00
26192;BME280;13935;55.672;37.764;2023-04-06T02:35:41;100770.44;;;5.44;100.00
26192;BME280;13935;55.672;37.764;2023-04-06T02:36:52;100767.72;;;5.44;100.00
26192;BME280;13935;55.672;37.764;2023-04-06T02:41:15;100769.31;;;5.45;100.00
26192;BME280;13935;55.672;37.764;2023-04-06T02:42:21;100767.72;;;5.44;100.00
26192;BME280;13935;55.672;37.764;2023-04-06T02:49:46;100775.19;;;5.35;100.00
26192;BME280;13935;55.672;37.764;2023-04-06T02:51:06;100775.66;;;5.37;100.00
26192;BME280;13935;55.672;37.764;2023-04-06T02:52:27;100770.34;;;5.32;100.00
26192;BME280;13935;55.672;37.764;2023-04-06T02:54:53;100782.28;;;5.36;100.00
26192;BME280;13935;55.672;37.764;2023-04-06T02:56:04;100782.28;;;5.36;100.00
26192;BME280;13935;55.672;37.764;2023-04-06T03:24:19;100794.59;;;5.59;100.00
26192;BME280;13935;55.672;37.764;2023-04-06T03:25:43;100804.72;;;5.66;100.00
26192;BME280;13935;55.672;37.764;2023-04-06T03:27:14;100809.25;;;5.63;100.00
26192;BME280;13935;55.672;37.764;2023-04-06T03:28:50;100803.91;;;5.66;100.00
26192;BME280;13935;55.672;37.764;2023-04-06T03:30:05;100793.75;;;5.66;100.00
26192;BME280;13935;55.672;37.764;2023-04-06T03:31:38;100801.66;;;5.68;100.00
26192;BME280;13935;55.672;37.764;2023-04-06T03:34:12;100803.72;;;5.79;100.00
26192;BME280;13935;55.672;37.764;2023-04-06T03:35:36;100807.13;;;5.76;100.00
26192;BME280;13935;55.672;37.764;2023-04-06T03:37:31;100805.88;;;5.65;100.00
26192;BME280;13935;55.672;37.764;2023-04-06T03:38:42;100806.00;;;5.69;100.00
26192;BME280;13935;55.672;37.764;2023-04-06T03:40:30;100813.88;;;5.79;100.00
26192;BME280;13935;55.672;37.764;2023-04-06T03:41:51;100805.00;;;5.73;100.00
26192;BME280;13935;55.672;37.764;2023-04-06T03:47:01;100817.91;;;5.81;100.00
26192;BME280;13935;55.672;37.764;2023-04-06T03:50:57;100814.09;;;5.65;100.00
26192;BME280;13935;55.672;37.764;2023-04-06T03:52:17;100816.16;;;5.68;100.00
26192;BME280;13935;55.672;37.764;2023-04-06T03:55:25;100824.16;;;5.90;100.00
26192;BME280;13935;55.672;37.764;2023-04-06T03:56:29;100827.19;;;5.97;100.00
26192;BME280;13935;55.672;37.764;2023-04-06T03:57:44;100828.31;;;5.96;100.00
26192;BME280;13935;55.672;37.764;2023-04-06T04:05:07;100825.38;;;6.01;100.00
26192;BME280;13935;55.672;37.764;2023-04-06T04:06:11;100835.34;;;6.06;100.00
26192;BME280;13935;55.672;37.764;2023-04-06T04:07:16;100828.25;;;6.25;100.00
26192;BME280;13935;55.672;37.764;2023-04-06T04:10:43;100828.19;;;8.50;100.00
26192;BME280;13935;55.672;37.764;2023-04-06T04:11:47;100831.78;;;8.77;100.00
26192;BME280;13935;55.672;37.764;2023-04-06T04:12:53;100827.66;;;8.99;100.00
26192;BME280;13935;55.672;37.764;2023-04-06T04:14:01;100826.63;;;9.49;100.00
26192;BME280;13935;55.672;37.764;2023-04-06T04:15:05;100827.41;;;9.96;100.00
26192;BME280;13935;55.672;37.764;2023-04-06T04:16:07;100829.28;;;9.77;100.00
26192;BME280;13935;55.672;37.764;2023-04-06T04:17:15;100821.53;;;9.82;100.00
26192;BME280;13935;55.672;37.764;2023-04-06T04:18:40;100822.19;;;9.60;100.00
26192;BME280;13935;55.672;37.764;2023-04-06T04:36:54;100827.19;;;12.00;76.83
26192;BME280;13935;55.672;37.764;2023-04-06T05:03:31;100838.09;;;14.16;58.30
26192;BME280;13935;55.672;37.764;2023-04-06T05:04:51;100841.47;;;14.45;59.16
26192;BME280;13935;55.672;37.764;2023-04-06T05:06:08;100837.13;;;13.98;59.11
26192;BME280;13935;55.672;37.764;2023-04-06T05:11:53;100833.78;;;15.03;54.52
26192;BME280;13935;55.672;37.764;2023-04-06T06:12:38;100835.09;;;16.62;46.71
26192;BME280;13935;55.672;37.764;2023-04-06T06:13:51;100833.94;;;16.45;46.77
26192;BME280;13935;55.672;37.764;2023-04-06T06:14:54;100843.28;;;17.86;45.77
26192;BME280;13935;55.672;37.764;2023-04-06T06:16:18;100839.25;;;17.22;45.11
26192;BME280;13935;55.672;37.764;2023-04-06T06:17:22;100837.72;;;17.04;45.25
26192;BME280;13935;55.672;37.764;2023-04-06T06:18:42;100837.78;;;16.90;45.08
26192;BME280;13935;55.672;37.764;2023-04-06T06:19:49;100837.91;;;16.62;47.20
26192;BME280;13935;55.672;37.764;2023-04-06T06:20:51;100847.53;;;15.91;48.18
26192;BME280;13935;55.672;37.764;2023-04-06T06:21:57;100840.22;;;18.13;44.70
26192;BME280;13935;55.672;37.764;2023-04-06T06:23:03;100848.44;;;17.87;44.08
26192;BME280;13935;55.672;37.764;2023-04-06T06:24:09;100835.13;;;17.47;44.35
26192;BME280;13935;55.672;37.764;2023-04-06T06:25:11;100838.22;;;18.14;43.78
26192;BME280;13935;55.672;37.764;2023-04-06T06:26:18;100833.09;;;18.82;41.79
26192;BME280;13935;55.672;37.764;2023-04-06T06:27:48;100840.41;;;18.40;42.01
26192;BME280;13935;55.672;37.764;2023-04-06T06:31:40;100838.31;;;18.51;42.25
26192;BME280;13935;55.672;37.764;2023-04-06T06:32:42;100836.81;;;17.34;43.01
26192;BME280;13935;55.672;37.764;2023-04-06T06:33:45;100834.28;;;17.57;43.79
26192;BME280;13935;55.672;37.764;2023-04-06T06:34:47;100839.97;;;17.40;44.15
26192;BME280;13935;55.672;37.764;2023-04-06T06:35:50;100827.78;;;17.71;43.29
26192;BME280;13935;55.672;37.764;2023-04-06T06:36:59;100838.44;;;17.28;43.79
26192;BME280;13935;55.672;37.764;2023-04-06T06:38:02;100830.72;;;16.54;45.08
26192;BME280;13935;55.672;37.764;2023-04-06T06:39:06;100833.25;;;17.23;43.91
26192;BME280;13935;55.672;37.764;2023-04-06T06:40:09;100835.97;;;17.44;43.70
26192;BME280;13935;55.672;37.764;2023-04-06T06:41:12;100837.66;;;18.33;43.12
26192;BME280;13935;55.672;37.764;2023-04-06T06:42:16;100829.94;;;17.49;43.39
26192;BME280;13935;55.672;37.764;2023-04-06T06:43:40;100838.81;;;17.34;43.72
26192;BME280;13935;55.672;37.764;2023-04-06T06:44:43;100838.84;;;17.30;43.63
26192;BME280;13935;55.672;37.764;2023-04-06T06:45:45;100828.94;;;17.77;43.58
26192;BME280;13935;55.672;37.764;2023-04-06T06:46:48;100825.25;;;17.83;43.09
26192;BME280;13935;55.672;37.764;2023-04-06T06:47:50;100823.19;;;18.41;42.44
26192;BME280;13935;55.672;37.764;2023-04-06T06:48:55;100835.81;;;18.56;42.03
26192;BME280;13935;55.672;37.764;2023-04-06T06:49:59;100839.41;;;18.93;41.13
26192;BME280;13935;55.672;37.764;2023-04-06T06:51:03;100827.22;;;18.73;41.49
26192;BME280;13935;55.672;37.764;2023-04-06T06:52:06;100832.41;;;19.38;39.95
26192;BME280;13935;55.672;37.764;2023-04-06T06:53:09;100840.38;;;19.13;40.73
26192;BME280;13935;55.672;37.764;2023-04-06T06:54:12;100828.41;;;19.09;39.88
26192;BME280;13935;55.672;37.764;2023-04-06T06:55:18;100828.00;;;19.07;40.66
26192;BME280;13935;55.672;37.764;2023-04-06T06:56:28;100831.38;;;19.55;39.39
26192;BME280;13935;55.672;37.764;2023-04-06T06:57:34;100832.59;;;18.58;40.66
26192;BME280;13935;55.672;37.764;2023-04-06T06:58:38;100830.16;;;18.23;41.96
26192;BME280;13935;55.672;37.764;2023-04-06T06:59:41;100830.75;;;17.97;41.85
26192;BME280;13935;55.672;37.764;2023-04-06T07:00:45;100822.81;;;17.92;42.55
26192;BME280;13935;55.672;37.764;2023-04-06T07:01:50;100840.88;;;17.81;42.24
26192;BME280;13935;55.672;37.764;2023-04-06T07:02:52;100827.75;;;17.74;42.53
26192;BME280;13935;55.672;37.764;2023-04-06T07:03:57;100835.97;;;17.44;42.93
26192;BME280;13935;55.672;37.764;2023-04-06T07:05:00;100829.53;;;17.47;44.26
26192;BME280;13935;55.672;37.764;2023-04-06T07:06:08;100836.19;;;17.67;43.14
26192;BME280;13935;55.672;37.764;2023-04-06T07:07:13;100835.00;;;17.68;42.94
26192;BME280;13935;55.672;37.764;2023-04-06T07:08:16;100831.97;;;17.96;42.63
26192;BME280;13935;55.672;37.764;2023-04-06T07:09:18;100833.28;;;17.85;42.79
26192;BME280;13935;55.672;37.764;2023-04-06T07:10:21;100829.50;;;17.51;43.22
26192;BME280;13935;55.672;37.764;2023-04-06T07:11:23;100830.16;;;17.01;44.37
26192;BME280;13935;55.672;37.764;2023-04-06T07:12:25;100822.72;;;17.48;43.41
26192;BME280;13935;55.672;37.764;2023-04-06T07:13:28;100825.03;;;17.60;43.71
26192;BME280;13935;55.672;37.764;2023-04-06T07:14:32;100823.56;;;17.45;43.43
26192;BME280;13935;55.672;37.764;2023-04-06T07:15:34;100827.69;;;17.81;43.18
26192;BME280;13935;55.672;37.764;2023-04-06T07:16:38;100825.28;;;17.22;44.06
26192;BME280;13935;55.672;37.764;2023-04-06T07:17:41;100825.63;;;17.34;44.01
26192;BME280;13935;55.672;37.764;2023-04-06T07:18:43;100816.59;;;17.67;43.37
26192;BME280;13935;55.672;37.764;2023-04-06T07:19:45;100825.13;;;18.00;43.42
26192;BME280;13935;55.672;37.764;2023-04-06T07:20:47;100829.16;;;17.96;43.08
26192;BME280;13935;55.672;37.764;2023-04-06T07:21:50;100833.13;;;18.46;42.00
26192;BME280;13935;55.672;37.764;2023-04-06T07:22:52;100827.50;;;18.82;41.55
26192;BME280;13935;55.672;37.764;2023-04-06T07:23:54;100819.22;;;19.05;41.45
26192;BME280;13935;55.672;37.764;2023-04-06T07:24:56;100829.16;;;20.18;39.37
26192;BME280;13935;55.672;37.764;2023-04-06T07:26:00;100819.63;;;20.12;38.91
26192;BME280;13935;55.672;37.764;2023-04-06T07:27:04;100826.72;;;19.98;38.61
26192;BME280;13935;55.672;37.764;2023-04-06T07:28:06;100826.44;;;19.06;39.98
26192;BME280;13935;55.672;37.764;2023-04-06T07:29:08;100828.28;;;18.86;40.19
26192;BME280;13935;55.672;37.764;2023-04-06T07:30:11;100826.38;;;19.66;38.88
26192;BME280;13935;55.672;37.764;2023-04-06T07:31:13;100831.38;;;19.55;39.24
26192;BME280;13935;55.672;37.764;2023-04-06T07:32:15;100827.06;;;19.21;39.64
26192;BME280;13935;55.672;37.764;2023-04-06T07:33:17;100830.25;;;18.53;41.00
26192;BME280;13935;55.672;37.764;2023-04-06T07:34:20;100836.31;;;18.84;40.32
26192;BME280;13935;55.672;37.764;2023-04-06T07:35:24;100827.78;;;19.25;40.48
26192;BME280;13935;55.672;37.764;2023-04-06T07:36:26;100815.78;;;19.24;40.97
26192;BME280;13935;55.672;37.764;2023-04-06T07:37:28;100828.94;;;18.64;40.70
26192;BME280;13935;55.672;37.764;2023-04-06T07:38:32;100826.81;;;19.05;40.41
26192;BME280;13935;55.672;37.764;2023-04-06T07:39:35;100829.81;;;18.91;39.89
26192;BME280;13935;55.672;37.764;2023-04-06T07:40:37;100821.84;;;18.09;41.08
26192;BME280;13935;55.672;37.764;2023-04-06T07:41:39;100830.59;;;18.91;40.46
26192;BME280;13935;55.672;37.764;2023-04-06T07:42:41;100828.72;;;19.71;39.30
26192;BME280;13935;55.672;37.764;2023-04-06T07:43:45;100826.91;;;19.84;38.35
26192;BME280;13935;55.672;37.764;2023-04-06T07:44:47;100832.84;;;19.63;39.00
26192;BME280;13935;55.672;37.764;2023-04-06T07:45:50;100828.78;;;19.11;39.76
26192;BME280;13935;55.672;37.764;2023-04-06T07:46:52;100825.94;;;18.81;39.97
26192;BME280;13935;55.672;37.764;2023-04-06T07:47:56;100824.88;;;19.02;39.56
26192;BME280;13935;55.672;37.764;2023-04-06T07:49:01;100830.59;;;18.91;39.87
26192;BME280;13935;55.672;37.764;2023-04-06T07:50:06;100823.69;;;19.33;39.96
26192;BME280;13935;55.672;37.764;2023-04-06T07:51:08;100817.78;;;18.90;40.09
26192;BME280;13935;55.672;37.764;2023-04-06T07:52:17;100828.06;;;18.30;40.35
26192;BME280;13935;55.672;37.764;2023-04-06T07:53:19;100820.41;;;17.94;41.26
26192;BME280;13935;55.672;37.764;2023-04-06T07:54:23;100824.88;;;18.32;40.71
26192;BME280;13935;55.672;37.764;2023-04-06T07:55:25;100822.38;;;18.41;40.49
26192;BME280;13935;55.672;37.764;2023-04-06T07:56:27;100823.44;;;18.10;41.31
26192;BME280;13935;55.672;37.764;2023-04-06T07:57:29;100823.34;;;19.27;40.46
26192;BME280;13935;55.672;37.764;2023-04-06T07:58:31;100827.09;;;20.22;39.01
26192;BME280;13935;55.672;37.764;2023-04-06T07:59:33;100824.63;;;20.67;38.82
26192;BME280;13935;55.672;37.764;2023-04-06T08:00:35;100828.44;;;20.57;37.98
26192;BME280;13935;55.672;37.764;2023-04-06T08:01:37;100820.34;;;21.01;37.69
26192;BME280;13935;55.672;37.764;2023-04-06T08:02:39;100826.34;;;19.13;38.67
26192;BME280;13935;55.672;37.764;2023-04-06T08:03:41;100824.88;;;19.02;38.62
26192;BME280;13935;55.672;37.764;2023-04-06T08:04:44;100817.72;;;19.27;38.70
26192;BME280;13935;55.672;37.764;2023-04-06T08:05:46;100822.09;;;18.68;39.69
26192;BME280;13935;55.672;37.764;2023-04-06T08:06:48;100822.41;;;19.37;39.08
26192;BME280;13935;55.672;37.764;2023-04-06T08:07:50;100820.63;;;18.87;39.62
26192;BME280;13935;55.672;37.764;2023-04-06T08:08:54;100823.56;;;18.40;39.92
26192;BME280;13935;55.672;37.764;2023-04-06T08:09:56;100819.81;;;19.76;38.74
26192;BME280;13935;55.672;37.764;2023-04-06T08:10:58;100830.03;;;19.36;38.48
26192;BME280;13935;55.672;37.764;2023-04-06T08:12:03;100824.56;;;19.26;38.90
26192;BME280;13935;55.672;37.764;2023-04-06T08:13:05;100821.50;;;19.17;38.79
26192;BME280;13935;55.672;37.764;2023-04-06T08:14:07;100819.63;;;19.37;39.13
26192;BME280;13935;55.672;37.764;2023-04-06T08:15:10;100817.41;;;18.88;38.90
26192;BME280;13935;55.672;37.764;2023-04-06T08:16:12;100813.34;;;18.60;40.30
26192;BME280;13935;55.672;37.764;2023-04-06T08:17:15;100823.88;;;19.45;38.71
26192;BME280;13935;55.672;37.764;2023-04-06T08:18:17;100816.81;;;19.37;38.32
26192;BME280;13935;55.672;37.764;2023-04-06T08:19:20;100816.91;;;19.30;39.76
26192;BME280;13935;55.672;37.764;2023-04-06T08:20:23;100817.38;;;19.25;39.15
26192;BME280;13935;55.672;37.764;2023-04-06T08:21:26;100814.94;;;19.27;38.94
26192;BME280;13935;55.672;37.764;2023-04-06T08:22:28;100825.44;;;19.49;38.59
26192;BME280;13935;55.672;37.764;2023-04-06T08:23:31;100823.97;;;18.42;40.28
26192;BME280;13935;55.672;37.764;2023-04-06T08:24:34;100821.16;;;18.42;40.63
26192;BME280;13935;55.672;37.764;2023-04-06T08:25:42;100814.41;;;18.36;40.45
26192;BME280;13935;55.672;37.764;2023-04-06T08:26:44;100809.72;;;17.79;41.59
26192;BME280;13935;55.672;37.764;2023-04-06T08:27:47;100813.72;;;17.78;41.64
26192;BME280;13935;55.672;37.764;2023-04-06T08:29:16;100807.88;;;18.05;41.58
26192;BME280;13935;55.672;37.764;2023-04-06T08:30:25;100816.72;;;19.14;39.83
26192;BME280;13935;55.672;37.764;2023-04-06T08:31:43;100814.41;;;18.36;40.00
26192;BME280;13935;55.672;37.764;2023-04-06T08:33:26;100811.28;;;19.00;38.61
26192;BME280;13935;55.672;37.764;2023-04-06T08:35:36;100820.75;;;18.43;39.17
26192;BME280;13935;55.672;37.764;2023-04-06T08:44:35;100802.78;;;19.37;38.31
26192;BME280;13935;55.672;37.764;2023-04-06T08:45:41;100819.84;;;18.09;39.49
26192;BME280;13935;55.672;37.764;2023-04-06T08:46:43;100820.72;;;19.13;38.56
26192;BME280;13935;55.672;37.764;2023-04-06T08:47:50;100815.59;;;18.38;39.68
26192;BME280;13935;55.672;37.764;2023-04-06T08:49:30;100808.41;;;18.70;39.14
26192;BME280;13935;55.672;37.764;2023-04-06T08:50:34;100821.16;;;18.42;39.49
26192;BME280;13935;55.672;37.764;2023-04-06T08:51:37;100819.88;;;18.06;40.18
26192;BME280;13935;55.672;37.764;2023-04-06T08:52:48;100822.66;;;18.09;40.63
26192;BME280;13935;55.672;37.764;2023-04-06T08:53:56;100809.34;;;18.61;39.12
26192;BME280;13935;55.672;37.764;2023-04-06T08:54:58;100808.91;;;18.95;38.76
26192;BME280;13935;55.672;37.764;2023-04-06T08:56:04;100809.56;;;18.40;39.32
26192;BME280;13935;55.672;37.764;2023-04-06T08:57:07;100801.31;;;18.63;39.42
26192;BME280;13935;55.672;37.764;2023-04-06T08:58:09;100793.34;;;18.58;39.76
26192;BME280;13935;55.672;37.764;2023-04-06T08:59:32;100817.66;;;18.34;38.58
26192;BME280;13935;55.672;37.764;2023-04-06T09:00:38;100808.16;;;18.18;39.08
26192;BME280;13935;55.672;37.764;2023-04-06T09:02:05;100807.59;;;17.93;40.08
26192;BME280;13935;55.672;37.764;2023-04-06T09:03:22;100815.25;;;18.33;38.72
